createdAt,value
2023-04-03T00:00:18.927Z,1.30
2023-04-03T00:02:49.233Z,1.60
2023-04-03T00:05:19.746Z,1.52
2023-04-03T00:07:52.726Z,1.67
2023-04-03T00:10:23.017Z,1.30
2023-04-03T00:12:53.342Z,1.73
2023-04-03T00:15:29.471Z,1.35
2023-04-03T00:17:59.912Z,1.30
2023-04-03T00:20:31.077Z,1.30
2023-04-03T00:23:03.959Z,1.80
2023-04-03T00:25:34.313Z,1.98
2023-04-03T00:28:04.801Z,1.93
2023-04-03T00:30:35.730Z,1.70
2023-04-03T00:33:06.237Z,1.70
2023-04-03T00:35:37.840Z,1.83
2023-04-03T00:38:11.016Z,1.50
2023-04-03T00:40:45.743Z,1.53
2023-04-03T00:43:17.969Z,1.60
2023-04-03T00:45:49.745Z,1.53
2023-04-03T00:48:23.550Z,2.03
2023-04-03T00:50:54.131Z,1.90
2023-04-03T00:53:29.829Z,1.43
2023-04-03T00:56:00.756Z,1.80
2023-04-03T00:58:37.460Z,2.00
2023-04-03T01:01:11.876Z,1.60
2023-04-03T01:06:12.192Z,1.40
2023-04-03T01:08:45.318Z,1.63
2023-04-03T01:11:15.715Z,1.80
2023-04-03T01:13:46.765Z,2.30
2023-04-03T01:16:17.540Z,1.60
2023-04-03T01:18:48.948Z,1.30
2023-04-03T01:21:44.773Z,1.50
2023-04-03T01:24:42.467Z,1.60
2023-04-03T01:27:15.854Z,1.30
2023-04-03T01:32:21.808Z,1.73
2023-04-03T01:34:52.143Z,1.80
2023-04-03T01:37:22.531Z,1.83
2023-04-03T01:39:52.930Z,1.40
2023-04-03T01:42:23.447Z,2.17
2023-04-03T01:44:53.918Z,1.60
2023-04-03T01:47:27.067Z,1.90
2023-04-03T01:49:57.487Z,1.60
2023-04-03T01:52:28.149Z,1.40
2023-04-03T01:54:58.500Z,1.50
2023-04-03T01:57:29.037Z,1.60
2023-04-03T01:59:59.488Z,1.60
2023-04-03T02:02:32.269Z,1.60
2023-04-03T02:05:02.350Z,1.73
2023-04-03T02:07:32.676Z,1.50
2023-04-03T02:10:02.987Z,1.50
2023-04-03T02:12:33.301Z,1.73
2023-04-03T02:15:03.713Z,1.73
2023-04-03T02:17:36.559Z,1.73
2023-04-03T02:20:07.749Z,1.33
2023-04-03T02:22:38.125Z,1.53
2023-04-03T02:25:09.069Z,1.60
2023-04-03T02:27:39.411Z,1.80
2023-04-03T02:30:11.862Z,1.30
2023-04-03T02:32:44.922Z,1.33
2023-04-03T02:35:16.411Z,1.60
2023-04-03T02:37:47.038Z,1.70
2023-04-03T02:40:17.898Z,1.50
2023-04-03T02:42:48.306Z,2.17
2023-04-03T02:45:18.881Z,1.97
2023-04-03T02:47:51.715Z,2.57
2023-04-03T02:50:22.140Z,1.83
2023-04-03T02:52:52.434Z,1.77
2023-04-03T02:55:22.982Z,1.93
2023-04-03T02:57:55.613Z,2.20
2023-04-03T03:00:26.095Z,2.03
2023-04-03T03:02:58.925Z,1.90
2023-04-03T03:05:29.321Z,2.43
2023-04-03T03:07:59.646Z,2.07
2023-04-03T03:10:29.935Z,2.47
2023-04-03T03:13:00.283Z,2.27
2023-04-03T03:15:30.571Z,1.73
2023-04-03T03:18:03.346Z,2.67
2023-04-03T03:20:33.562Z,2.73
2023-04-03T03:23:03.896Z,1.73
2023-04-03T03:25:34.298Z,2.70
2023-04-03T03:28:05.377Z,2.00
2023-04-03T03:30:35.768Z,2.10
2023-04-03T03:33:08.543Z,2.70
2023-04-03T03:35:39.068Z,2.40
2023-04-03T03:38:09.583Z,2.13
2023-04-03T03:40:39.983Z,2.40
2023-04-03T03:43:10.939Z,2.37
2023-04-03T03:45:41.322Z,2.37
2023-04-03T03:48:13.978Z,2.90
2023-04-03T03:50:44.374Z,2.80
2023-04-03T03:53:16.076Z,2.33
2023-04-03T03:55:47.012Z,2.20
2023-04-03T03:58:17.481Z,2.67
2023-04-03T04:00:47.887Z,3.20
2023-04-03T04:03:20.904Z,2.60
2023-04-03T04:08:22.785Z,2.70
2023-04-03T04:10:53.083Z,2.70
2023-04-03T04:13:23.599Z,2.30
2023-04-03T04:15:53.955Z,2.97
2023-04-03T04:18:26.780Z,2.77
2023-04-03T04:20:57.114Z,3.27
2023-04-03T04:23:27.585Z,2.80
2023-04-03T04:25:57.913Z,2.83
2023-04-03T04:28:28.952Z,2.93
2023-04-03T04:31:01.062Z,3.10
2023-04-03T04:33:34.827Z,2.70
2023-04-03T04:36:07.476Z,3.03
2023-04-03T04:38:39.687Z,3.20
2023-04-03T04:41:10.977Z,3.50
2023-04-03T04:43:41.360Z,2.93
2023-04-03T04:46:15.391Z,3.10
2023-04-03T04:48:53.575Z,2.53
2023-04-03T04:51:25.460Z,3.17
2023-04-03T04:53:56.299Z,3.03
2023-04-03T04:56:27.838Z,3.20
2023-04-03T04:59:00.245Z,2.70
2023-04-03T05:01:31.275Z,2.80
2023-04-03T05:04:10.373Z,3.60
2023-04-03T05:06:40.828Z,3.30
2023-04-03T05:09:15.862Z,2.73
2023-04-03T05:11:47.928Z,2.80
2023-04-03T05:14:19.880Z,3.17
2023-04-03T05:16:53.860Z,2.90
2023-04-03T05:19:29.124Z,2.67
2023-04-03T05:21:59.966Z,3.40
2023-04-03T05:24:32.432Z,2.93
2023-04-03T05:27:03.426Z,2.87
2023-04-03T05:29:36.229Z,2.50
2023-04-03T05:32:08.116Z,3.10
2023-04-03T05:34:41.252Z,2.90
2023-04-03T05:37:11.759Z,3.00
2023-04-03T05:39:43.004Z,2.70
2023-04-03T05:42:15.706Z,2.53
2023-04-03T05:44:48.251Z,2.93
2023-04-03T05:47:19.332Z,2.40
2023-04-03T05:49:52.467Z,2.60
2023-04-03T05:52:26.657Z,2.75
2023-04-03T05:54:57.979Z,3.15
2023-04-03T05:57:34.423Z,2.77
2023-04-03T06:00:04.897Z,2.30
2023-04-03T06:02:44.612Z,2.70
2023-04-03T06:05:23.943Z,2.77
2023-04-03T06:07:54.825Z,3.33
2023-04-03T06:10:25.197Z,4.23
2023-04-03T06:12:55.746Z,3.10
2023-04-03T06:15:27.276Z,3.17
2023-04-03T06:17:57.646Z,3.83
2023-04-03T06:20:30.590Z,3.50
2023-04-03T06:23:01.190Z,3.17
2023-04-03T06:25:32.880Z,3.43
2023-04-03T06:28:03.200Z,3.33
2023-04-03T06:30:33.641Z,2.60
2023-04-03T06:33:03.828Z,3.23
2023-04-03T06:35:36.719Z,3.40
2023-04-03T06:38:10.568Z,3.53
2023-04-03T06:40:40.625Z,3.25
2023-04-03T06:43:11.147Z,4.43
2023-04-03T06:45:41.745Z,3.27
2023-04-03T06:48:12.850Z,3.87
2023-04-03T06:50:45.707Z,4.80
2023-04-03T06:53:16.096Z,3.70
2023-04-03T06:55:46.451Z,4.00
2023-04-03T06:58:19.135Z,4.03
2023-04-03T07:00:50.616Z,4.68
2023-04-03T07:03:20.923Z,4.03
2023-04-03T07:05:53.647Z,4.03
2023-04-03T07:08:24.823Z,3.67
2023-04-03T07:10:55.109Z,4.13
2023-04-03T07:13:25.737Z,3.30
2023-04-03T07:15:56.047Z,3.83
2023-04-03T07:18:27.423Z,2.57
2023-04-03T07:21:00.128Z,3.57
2023-04-03T07:23:30.531Z,2.87
2023-04-03T07:26:00.872Z,2.70
2023-04-03T07:28:31.450Z,3.57
2023-04-03T07:31:05.894Z,2.90
2023-04-03T07:36:10.636Z,2.47
2023-04-03T07:38:41.707Z,2.30
2023-04-03T07:41:18.733Z,3.25
2023-04-03T07:43:50.866Z,3.57
2023-04-03T07:46:21.948Z,2.70
2023-04-03T07:48:52.419Z,3.30
2023-04-03T07:51:25.791Z,3.03
2023-04-03T07:53:56.151Z,3.27
2023-04-03T07:56:26.689Z,3.00
2023-04-03T07:58:57.167Z,2.67
2023-04-03T08:01:27.511Z,2.03
2023-04-03T08:03:57.972Z,8.15
2023-04-03T08:06:42.579Z,9.35
2023-04-03T08:09:16.656Z,3.50
2023-04-03T08:11:47.137Z,2.72
2023-04-03T08:14:19.833Z,2.53
2023-04-03T08:16:50.889Z,3.25
2023-04-03T08:21:57.946Z,1.67
2023-04-03T08:24:28.502Z,2.13
2023-04-03T08:26:58.888Z,2.00
2023-04-03T08:29:29.286Z,1.52
2023-04-03T08:31:59.575Z,1.75
2023-04-03T08:34:30.070Z,1.98
2023-04-03T08:37:02.716Z,1.63
2023-04-03T08:39:33.047Z,1.83
2023-04-03T08:42:08.346Z,1.83
2023-04-03T08:44:44.037Z,1.52
2023-04-03T08:47:25.611Z,2.10
2023-04-03T08:49:59.759Z,2.30
2023-04-03T08:52:40.209Z,1.58
2023-04-03T08:55:18.892Z,2.17
2023-04-03T08:57:51.669Z,1.85
2023-04-03T09:00:23.813Z,1.70
2023-04-03T09:02:55.398Z,1.60
2023-04-03T09:05:44.308Z,1.23
2023-04-03T09:08:27.121Z,1.35
2023-04-03T09:11:09.646Z,2.55
2023-04-03T09:13:48.161Z,1.35
2023-04-03T09:16:29.715Z,1.83
2023-04-03T09:19:10.402Z,1.13
2023-04-03T09:21:43.531Z,1.40
2023-04-03T09:24:19.288Z,1.50
2023-04-03T09:26:55.027Z,1.73
2023-04-03T09:29:28.245Z,1.48
2023-04-03T09:32:02.914Z,1.42
2023-04-03T09:34:36.764Z,1.63
2023-04-03T09:37:09.842Z,1.20
2023-04-03T09:39:57.606Z,1.40
2023-04-03T09:42:29.324Z,1.35
2023-04-03T09:45:00.975Z,0.85
2023-04-03T09:47:34.883Z,0.82
2023-04-03T09:50:22.496Z,1.08
2023-04-03T09:52:53.970Z,1.80
2023-04-03T09:55:30.987Z,1.15
2023-04-03T09:58:03.837Z,1.20
2023-04-03T10:00:37.882Z,1.02
2023-04-03T10:03:09.657Z,1.25
2023-04-03T10:05:42.345Z,1.88
2023-04-03T10:08:24.649Z,0.85
2023-04-03T10:11:15.671Z,1.20
2023-04-03T10:14:00.748Z,1.20
2023-04-03T10:16:36.338Z,0.90
2023-04-03T10:19:35.308Z,1.00
2023-04-03T10:22:13.958Z,0.90
2023-04-03T10:24:55.711Z,1.95
2023-04-03T10:27:41.149Z,1.02
2023-04-03T10:30:33.884Z,1.30
2023-04-03T10:33:14.937Z,1.38
2023-04-03T10:35:52.131Z,1.00
2023-04-03T10:38:28.136Z,1.20
2023-04-03T10:41:06.042Z,1.23
2023-04-03T10:43:48.221Z,2.08
2023-04-03T10:46:22.234Z,1.25
2023-04-03T10:49:08.444Z,1.33
2023-04-03T10:51:46.053Z,0.95
2023-04-03T10:54:20.801Z,1.00
2023-04-03T10:57:01.350Z,0.93
2023-04-03T10:59:47.905Z,1.27
2023-04-03T11:02:26.006Z,0.82
2023-04-03T11:05:03.740Z,0.82
2023-04-03T11:07:42.305Z,0.93
2023-04-03T11:10:20.619Z,1.02
2023-04-03T11:12:55.706Z,0.80
2023-04-03T11:15:28.994Z,1.65
2023-04-03T11:18:03.085Z,1.05
2023-04-03T11:20:35.815Z,1.02
2023-04-03T11:23:09.778Z,1.15
2023-04-03T11:25:44.430Z,1.42
2023-04-03T11:28:18.027Z,1.05
2023-04-03T11:30:55.289Z,1.23
2023-04-03T11:33:36.756Z,0.85
2023-04-03T11:36:24.976Z,1.55
2023-04-03T11:39:01.575Z,1.27
2023-04-03T11:41:33.499Z,1.58
2023-04-03T11:44:05.783Z,1.40
2023-04-03T11:46:58.586Z,0.80
2023-04-03T11:50:00.417Z,0.90
2023-04-03T11:53:02.070Z,1.42
2023-04-03T11:56:08.055Z,0.93
2023-04-03T11:58:39.130Z,0.93
2023-04-03T12:01:14.757Z,1.10
2023-04-03T12:04:10.757Z,1.05
2023-04-03T12:07:17.530Z,1.20
2023-04-03T12:10:05.953Z,1.10
2023-04-03T12:12:44.280Z,0.80
2023-04-03T12:15:44.200Z,0.73
2023-04-03T12:18:36.116Z,1.00
2023-04-03T12:21:09.234Z,1.00
2023-04-03T12:23:59.589Z,1.38
2023-04-03T12:26:38.427Z,1.20
2023-04-03T12:29:29.265Z,0.93
2023-04-03T12:32:13.409Z,0.90
2023-04-03T12:35:13.571Z,0.85
2023-04-03T12:37:58.767Z,0.75
2023-04-03T12:40:35.554Z,0.82
2023-04-03T12:43:18.632Z,0.80
2023-04-03T12:45:53.482Z,0.63
2023-04-03T12:48:29.798Z,1.15
2023-04-03T12:51:01.178Z,1.20
2023-04-03T12:53:39.564Z,0.93
2023-04-03T12:56:29.556Z,0.90
2023-04-03T12:59:16.902Z,0.88
2023-04-03T13:01:47.148Z,1.40
2023-04-03T13:04:17.634Z,0.73
2023-04-03T13:06:48.315Z,0.90
2023-04-03T13:09:29.080Z,1.13
2023-04-03T13:12:03.862Z,1.00
2023-04-03T13:14:34.540Z,0.90
2023-04-03T13:17:10.262Z,0.70
2023-04-03T13:19:40.855Z,1.25
2023-04-03T13:22:20.833Z,0.77
2023-04-03T13:24:55.885Z,0.90
2023-04-03T13:27:26.759Z,0.93
2023-04-03T13:30:00.754Z,0.70
2023-04-03T13:32:35.194Z,0.90
2023-04-03T13:35:17.969Z,1.20
2023-04-03T13:37:59.276Z,0.85
2023-04-03T13:40:41.456Z,0.93
2023-04-03T13:43:23.173Z,1.02
2023-04-03T13:46:06.288Z,0.77
2023-04-03T13:48:42.620Z,0.70
2023-04-03T13:51:24.410Z,0.82
2023-04-03T13:53:58.071Z,1.05
2023-04-03T13:56:35.482Z,0.90
2023-04-03T13:59:24.118Z,0.90
2023-04-03T14:01:58.331Z,0.93
2023-04-03T14:04:31.129Z,0.82
2023-04-03T14:07:01.710Z,0.82
2023-04-03T14:09:32.534Z,1.27
2023-04-03T14:12:13.084Z,0.60
2023-04-03T14:14:48.622Z,1.00
2023-04-03T14:17:24.669Z,0.98
2023-04-03T14:19:56.711Z,0.60
2023-04-03T14:22:29.494Z,0.60
2023-04-03T14:25:00.175Z,0.75
2023-04-03T14:27:37.008Z,1.20
2023-04-03T14:30:12.412Z,0.93
2023-04-03T14:32:43.002Z,0.77
2023-04-03T14:35:13.411Z,0.68
2023-04-03T14:37:43.873Z,0.90
2023-04-03T14:40:18.346Z,0.60
2023-04-03T14:42:51.741Z,0.63
2023-04-03T14:45:22.259Z,0.60
2023-04-03T14:47:54.685Z,0.85
2023-04-03T14:50:28.883Z,1.10
2023-04-03T14:53:01.826Z,0.88
2023-04-03T14:55:32.930Z,0.85
2023-04-03T14:58:05.781Z,0.80
2023-04-03T15:00:36.187Z,0.80
2023-04-03T15:03:06.669Z,0.80
2023-04-03T15:05:38.418Z,0.65
2023-04-03T15:08:08.744Z,0.60
2023-04-03T15:10:39.312Z,0.80
2023-04-03T15:13:14.585Z,0.88
2023-04-03T15:15:45.639Z,1.25
2023-04-03T15:18:21.249Z,1.48
2023-04-03T15:20:51.667Z,1.10
2023-04-03T15:23:26.889Z,1.10
2023-04-03T15:25:58.042Z,3.75
2023-04-03T15:28:33.915Z,3.50
2023-04-03T15:31:05.077Z,4.95
2023-04-03T15:33:35.823Z,1.80
2023-04-03T15:36:11.837Z,2.55
2023-04-03T15:38:47.879Z,2.17
2023-04-03T15:41:17.967Z,2.20
2023-04-03T15:43:50.638Z,1.05
2023-04-03T15:46:21.119Z,1.10
2023-04-03T15:48:51.434Z,1.10
2023-04-03T15:51:21.787Z,1.20
2023-04-03T15:53:52.097Z,1.27
2023-04-03T15:56:22.529Z,0.90
2023-04-03T15:58:55.149Z,1.20
2023-04-03T16:01:25.597Z,1.80
2023-04-03T16:03:56.047Z,0.75
2023-04-03T16:06:30.522Z,1.67
2023-04-03T16:11:31.151Z,2.00
2023-04-03T16:14:03.761Z,1.65
2023-04-03T16:16:34.342Z,1.35
2023-04-03T16:19:04.687Z,1.33
2023-04-03T16:21:35.873Z,0.73
2023-04-03T16:24:06.671Z,1.27
2023-04-03T16:26:37.043Z,1.08
2023-04-03T16:29:10.056Z,0.90
2023-04-03T16:31:40.706Z,1.38
2023-04-03T16:34:11.200Z,0.75
2023-04-03T16:36:41.594Z,1.00
2023-04-03T16:39:12.677Z,1.27
2023-04-03T16:41:43.042Z,1.60
2023-04-03T16:44:16.020Z,0.85
2023-04-03T16:46:47.754Z,0.90
2023-04-03T16:49:18.808Z,1.10
2023-04-03T16:51:49.160Z,1.02
2023-04-03T16:54:19.521Z,0.95
2023-04-03T16:56:49.852Z,0.80
2023-04-03T16:59:22.955Z,0.77
2023-04-03T17:01:53.335Z,1.10
2023-04-03T17:04:23.676Z,1.05
2023-04-03T17:06:54.745Z,0.77
2023-04-03T17:09:25.199Z,0.80
2023-04-03T17:11:55.801Z,0.70
2023-04-03T17:14:28.773Z,0.85
2023-04-03T17:16:59.269Z,0.98
2023-04-03T17:19:29.797Z,0.90
2023-04-03T17:22:00.344Z,1.38
2023-04-03T17:24:31.301Z,0.80
2023-04-03T17:27:01.736Z,1.50
2023-04-03T17:29:34.918Z,1.73
2023-04-03T17:32:05.551Z,4.65
2023-04-03T17:34:36.979Z,4.13
2023-04-03T17:37:09.180Z,3.78
2023-04-03T17:39:39.720Z,1.88
2023-04-03T17:42:10.063Z,1.58
2023-04-03T17:44:43.216Z,1.20
2023-04-03T17:47:13.846Z,1.00
2023-04-03T17:49:44.327Z,1.58
2023-04-03T17:52:14.830Z,1.42
2023-04-03T17:54:45.196Z,2.45
2023-04-03T17:57:15.706Z,2.80
2023-04-03T17:59:48.639Z,2.10
2023-04-03T18:02:19.152Z,2.53
2023-04-03T18:04:49.473Z,3.33
2023-04-03T18:07:19.870Z,3.87
2023-04-03T18:09:51.440Z,3.60
2023-04-03T18:12:22.175Z,2.75
2023-04-03T18:14:55.201Z,3.35
2023-04-03T18:17:26.983Z,2.90
2023-04-03T18:19:57.426Z,2.60
2023-04-03T18:22:28.104Z,2.58
2023-04-03T18:25:00.130Z,1.92
2023-04-03T18:27:31.046Z,1.67
2023-04-03T18:30:05.682Z,3.07
2023-04-03T18:32:36.415Z,2.00
2023-04-03T18:35:06.951Z,1.53
2023-04-03T18:37:37.349Z,1.90
2023-04-03T18:40:08.098Z,1.70
2023-04-03T18:42:38.595Z,2.10
2023-04-03T18:45:16.739Z,2.10
2023-04-03T18:47:47.868Z,1.90
2023-04-03T18:50:18.850Z,4.30
2023-04-03T18:52:50.965Z,5.90
2023-04-03T18:55:21.987Z,2.93
2023-04-03T18:57:53.069Z,2.97
2023-04-03T19:00:26.449Z,5.40
2023-04-03T19:02:57.531Z,4.73
2023-04-03T19:05:31.903Z,2.37
2023-04-03T19:08:02.402Z,1.52
2023-04-03T19:10:32.772Z,1.20
2023-04-03T19:13:03.582Z,1.20
2023-04-03T19:15:36.731Z,1.27
2023-04-03T19:18:07.482Z,1.60
2023-04-03T19:20:38.022Z,1.73
2023-04-03T19:23:09.022Z,1.03
2023-04-03T19:25:39.946Z,1.27
2023-04-03T19:28:11.829Z,1.00
2023-04-03T19:30:48.461Z,1.60
2023-04-03T19:35:36.940Z,1.07
2023-04-03T19:38:07.437Z,2.37
2023-04-03T19:40:38.766Z,1.40
2023-04-03T19:43:09.534Z,0.87
2023-04-03T19:45:40.358Z,1.90
2023-04-03T19:48:11.431Z,2.00
2023-04-03T19:50:44.834Z,2.00
2023-04-03T19:53:19.626Z,1.03
2023-04-03T19:55:50.511Z,1.23
2023-04-03T19:58:21.213Z,1.40
2023-04-03T20:00:52.056Z,1.20
2023-04-03T20:03:22.816Z,0.97
2023-04-03T20:05:57.889Z,1.60
2023-04-03T20:08:29.466Z,1.00
2023-04-03T20:11:02.870Z,1.10
2023-04-03T20:13:33.897Z,0.97
2023-04-03T20:16:06.442Z,0.90
2023-04-03T20:18:38.916Z,1.20
2023-04-03T20:21:12.329Z,0.90
2023-04-03T20:23:42.991Z,1.23
2023-04-03T20:26:15.814Z,0.97
2023-04-03T20:28:46.802Z,0.80
2023-04-03T20:31:18.042Z,0.97
2023-04-03T20:33:48.978Z,1.43
2023-04-03T20:36:23.803Z,0.80
2023-04-03T20:38:54.834Z,0.73
2023-04-03T20:41:26.269Z,0.70
2023-04-03T20:43:57.957Z,0.90
2023-04-03T20:46:42.061Z,1.30
2023-04-03T20:49:19.479Z,0.80
2023-04-03T20:51:53.088Z,0.97
2023-04-03T20:54:24.209Z,1.13
2023-04-03T20:56:54.535Z,1.20
2023-04-03T20:59:25.598Z,1.30
2023-04-03T21:01:56.268Z,1.27
2023-04-03T21:04:30.620Z,0.87
2023-04-03T21:07:16.347Z,0.93
2023-04-03T21:10:01.744Z,1.67
2023-04-03T21:13:03.342Z,1.50
2023-04-03T21:15:49.270Z,1.03
2023-04-03T21:18:42.203Z,1.13
2023-04-03T21:21:22.496Z,1.33
2023-04-03T21:23:53.394Z,1.73
2023-04-03T21:26:24.504Z,1.27
2023-04-03T21:28:55.119Z,1.53
2023-04-03T21:31:25.910Z,6.67
2023-04-03T21:34:00.922Z,3.97
2023-04-03T21:36:31.458Z,2.80
2023-04-03T21:39:02.560Z,5.70
2023-04-03T21:41:33.115Z,3.57
2023-04-03T21:44:03.511Z,2.30
2023-04-03T21:46:34.062Z,2.13
2023-04-03T21:49:07.619Z,1.67
2023-04-03T21:51:39.010Z,1.63
2023-04-03T21:54:09.543Z,1.77
2023-04-03T21:56:39.851Z,1.43
2023-04-03T21:59:10.376Z,2.27
2023-04-03T22:01:40.942Z,1.97
2023-04-03T22:04:14.182Z,1.23
2023-04-03T22:06:44.637Z,1.70
2023-04-03T22:09:15.258Z,1.80
2023-04-03T22:11:46.225Z,1.70
2023-04-03T22:14:17.443Z,1.80
2023-04-03T22:16:48.494Z,1.53
2023-04-03T22:19:21.444Z,1.60
2023-04-03T22:21:51.793Z,1.37
2023-04-03T22:24:22.187Z,0.93
2023-04-03T22:26:52.810Z,1.30
2023-04-03T22:29:23.203Z,1.27
2023-04-03T22:31:53.620Z,0.90
2023-04-03T22:34:26.421Z,0.90
2023-04-03T22:36:57.238Z,1.70
2023-04-03T22:39:27.595Z,1.57
2023-04-03T22:41:57.966Z,1.17
2023-04-03T22:44:35.010Z,2.13
2023-04-03T22:47:06.910Z,1.60
2023-04-03T22:49:39.751Z,1.60
2023-04-03T22:52:10.016Z,1.83
2023-04-03T22:54:40.512Z,1.60
2023-04-03T22:57:10.926Z,1.87
2023-04-03T22:59:41.218Z,1.30
2023-04-03T23:02:12.603Z,1.80
2023-04-03T23:04:45.209Z,2.73
2023-04-03T23:07:16.160Z,1.80
2023-04-03T23:09:46.876Z,1.23
2023-04-03T23:12:17.168Z,1.70
2023-04-03T23:14:47.163Z,1.30
2023-04-03T23:17:17.442Z,1.87
2023-04-03T23:19:50.364Z,1.47
2023-04-03T23:22:21.099Z,1.27
2023-04-03T23:24:51.703Z,1.23
2023-04-03T23:27:22.022Z,1.53
2023-04-03T23:29:52.385Z,1.40
2023-04-03T23:32:22.769Z,1.50
2023-04-03T23:34:55.865Z,1.27
2023-04-03T23:37:26.538Z,1.73
2023-04-03T23:39:56.856Z,1.07
2023-04-03T23:42:27.264Z,1.23
2023-04-03T23:44:57.549Z,1.40
2023-04-03T23:47:27.921Z,1.63
2023-04-03T23:50:00.942Z,1.30
2023-04-03T23:52:31.261Z,1.20
2023-04-03T23:55:02.192Z,1.37
2023-04-03T23:57:32.832Z,1.40
